EPZG/IEG METAR and TAF weather

Enter ICAO airport designator
Station Type Date Time Source
EPZG METAR 2021/07/24 20:00 UTC NOAA

EPZG 242000Z 07005KT CAVOK 21/13 Q1012


Station Type Date Time Source
EPZG Decoded METAR 2021/07/24 20:00 UTC NOAA

Zielona Gora, Poland (EPZG) 51-56N 015-32E 192M
Jul 24, 2021 - 04:00 PM EDT / 2021.07.24 2000 UTC
Wind: from the ENE (070 degrees) at 6 MPH (5 KT):0
Visibility: greater than 7 mile(s):0
Temperature: 69 F (21 C)
Dew Point: 55 F (13 C)
Relative Humidity: 60%
Pressure (altimeter): 29.88 in. Hg (1012 hPa)
ob: EPZG 242000Z 07005KT CAVOK 21/13 Q1012
cycle: 20

Station Type Date Time Source
EPZG TAF 2012/06/28 21:49 UTC NOAA

TAF EPZG 282000Z 2821/2906 VRB02KT CAVOK
TEMPO 2823/2904 5000 BR PROB30 2900/2904 1500 BR BKN005

Example: see airport list